OTBD/DOH METAR and TAF weather

Enter ICAO airport designator
Station Type Date Time Source
OTBD METAR 2021/05/10 01:30 UTC NOAA

OTBD 100130Z AUTO 00000KT CAVOK 28/17 Q1006 NOSIG


Station Type Date Time Source
OTBD Decoded METAR 2021/05/10 01:30 UTC NOAA

Doha International Airport, Qatar (OTBD) 25-15N 051-34E 10M
May 09, 2021 - 09:30 PM EDT / 2021.05.10 0130 UTC
Wind: Calm:0
Visibility: greater than 7 mile(s):0
Temperature: 82 F (28 C)
Dew Point: 62 F (17 C)
Relative Humidity: 51%
Pressure (altimeter): 29.71 in. Hg (1006 hPa)
ob: OTBD 100130Z AUTO 00000KT CAVOK 28/17 Q1006 NOSIG
cycle: 1

Station Type Date Time Source
OTBD TAF 2021/05/09 18:06 UTC NOAA

TAF TAF OTBD 091701Z 0918/1024 VRB03KT 9000 NSC
BECMG 0921/0923 26007KT
BECMG 1009/1011 33013KT

Example: see airport list